createdAt,value
2023-11-22T00:01:32.218Z,11.67
2023-11-22T00:04:20.114Z,11.67
2023-11-22T00:07:08.412Z,11.67
2023-11-22T00:09:54.338Z,11.68
2023-11-22T00:12:40.407Z,11.68
2023-11-22T00:15:27.104Z,11.69
2023-11-22T00:18:13.855Z,11.69
2023-11-22T00:21:02.885Z,11.68
2023-11-22T00:23:49.936Z,11.71
2023-11-22T00:26:36.144Z,11.72
2023-11-22T00:29:21.929Z,11.72
2023-11-22T00:32:08.824Z,11.72
2023-11-22T00:34:56.563Z,11.73
2023-11-22T00:37:42.500Z,11.74
2023-11-22T00:40:28.593Z,11.71
2023-11-22T00:43:14.535Z,11.74
2023-11-22T00:46:00.659Z,11.74
2023-11-22T00:48:46.710Z,11.73
2023-11-22T00:51:33.685Z,11.74
2023-11-22T00:54:21.203Z,11.73
2023-11-22T00:57:08.316Z,11.75
2023-11-22T00:59:55.016Z,11.75
2023-11-22T01:02:41.555Z,11.75
2023-11-22T01:05:27.926Z,11.74
2023-11-22T01:08:15.080Z,11.68
2023-11-22T01:11:01.346Z,11.71
2023-11-22T01:13:47.839Z,11.74
2023-11-22T01:16:34.030Z,11.76
2023-11-22T01:19:19.920Z,11.77
2023-11-22T01:22:06.009Z,11.78
2023-11-22T01:24:51.874Z,11.74
2023-11-22T01:27:37.831Z,11.79
2023-11-22T01:30:24.008Z,11.80
2023-11-22T01:33:10.649Z,11.81
2023-11-22T01:35:57.368Z,11.82
2023-11-22T01:38:45.642Z,11.83
2023-11-22T01:41:31.897Z,11.80
2023-11-22T01:44:19.508Z,11.82
2023-11-22T01:47:06.258Z,11.77
2023-11-22T01:49:52.476Z,11.81
2023-11-22T01:52:43.886Z,11.79
2023-11-22T01:55:31.667Z,11.79
2023-11-22T01:58:17.925Z,11.78
2023-11-22T02:01:06.000Z,11.77
2023-11-22T02:03:54.561Z,11.75
2023-11-22T02:06:40.631Z,11.65
2023-11-22T02:09:26.450Z,11.75
2023-11-22T02:12:13.408Z,11.73
2023-11-22T02:14:59.340Z,11.75
2023-11-22T02:17:45.231Z,11.76
2023-11-22T02:20:34.268Z,11.77
2023-11-22T02:23:20.329Z,11.71
2023-11-22T02:26:06.553Z,11.80
2023-11-22T02:28:52.433Z,11.80
2023-11-22T02:31:38.455Z,11.81
2023-11-22T02:34:24.372Z,11.81
2023-11-22T02:37:10.121Z,11.79
2023-11-22T02:40:12.375Z,11.75
2023-11-22T02:42:58.929Z,11.78
2023-11-22T02:45:45.759Z,11.78
2023-11-22T02:48:31.619Z,11.76
2023-11-22T02:51:18.492Z,11.79
2023-11-22T02:54:06.844Z,11.78
2023-11-22T02:56:52.765Z,11.75
2023-11-22T02:59:38.591Z,11.74
2023-11-22T03:02:27.178Z,11.70
2023-11-22T03:05:13.873Z,11.72
2023-11-22T03:08:00.176Z,11.70
2023-11-22T03:10:46.020Z,11.68
2023-11-22T03:13:31.970Z,11.67
2023-11-22T03:16:17.824Z,11.70
2023-11-22T03:19:07.993Z,11.65
2023-11-22T03:21:54.153Z,11.70
2023-11-22T03:24:40.949Z,11.73
2023-11-22T03:27:27.532Z,11.71
2023-11-22T03:30:17.017Z,11.67
2023-11-22T03:33:03.069Z,11.70
2023-11-22T03:35:59.376Z,11.66
2023-11-22T03:38:46.096Z,11.63
2023-11-22T03:41:32.836Z,11.67
2023-11-22T03:44:19.007Z,11.64
2023-11-22T03:47:07.883Z,11.64
2023-11-22T03:49:54.074Z,11.61
2023-11-22T03:52:41.084Z,11.61
2023-11-22T03:55:28.115Z,11.60
2023-11-22T03:58:19.336Z,11.57
2023-11-22T04:01:05.431Z,11.57
2023-11-22T04:03:52.749Z,11.57
2023-11-22T04:06:38.914Z,11.55
2023-11-22T04:09:25.272Z,11.57
2023-11-22T04:12:11.634Z,11.55
2023-11-22T04:14:57.765Z,11.59
2023-11-22T04:17:43.848Z,11.59
2023-11-22T04:20:31.342Z,11.59
2023-11-22T04:23:17.604Z,11.59
2023-11-22T04:26:03.659Z,11.59
2023-11-22T04:28:49.954Z,11.60
2023-11-22T04:31:35.608Z,11.61
2023-11-22T04:34:25.362Z,11.61
2023-11-22T04:37:11.316Z,11.62
2023-11-22T04:39:57.652Z,11.62
2023-11-22T04:42:43.565Z,11.59
2023-11-22T04:45:29.474Z,11.62
2023-11-22T04:48:18.025Z,11.62
2023-11-22T04:51:04.241Z,11.61
2023-11-22T04:53:50.049Z,11.61
2023-11-22T04:56:35.980Z,11.64
2023-11-22T04:59:21.741Z,11.60
2023-11-22T05:02:08.338Z,11.64
2023-11-22T05:04:54.810Z,11.67
2023-11-22T05:07:40.762Z,11.66
2023-11-22T05:10:26.481Z,11.56
2023-11-22T05:13:13.246Z,11.71
2023-11-22T05:15:59.056Z,11.72
2023-11-22T05:18:45.826Z,11.72
2023-11-22T05:21:31.706Z,11.71
2023-11-22T05:24:18.897Z,11.73
2023-11-22T05:27:05.162Z,11.72
2023-11-22T05:29:55.255Z,11.70
2023-11-22T05:32:42.577Z,11.68
2023-11-22T05:35:28.929Z,11.67
2023-11-22T05:38:14.822Z,11.66
2023-11-22T05:41:03.645Z,11.65
2023-11-22T05:43:50.736Z,11.62
2023-11-22T05:46:36.587Z,11.64
2023-11-22T05:49:22.587Z,11.63
2023-11-22T05:52:08.523Z,11.58
2023-11-22T05:54:54.687Z,11.64
2023-11-22T05:57:40.563Z,11.66
2023-11-22T06:00:27.748Z,11.66
2023-11-22T06:03:14.781Z,11.68
2023-11-22T06:06:00.813Z,11.70
2023-11-22T06:08:47.048Z,11.71
2023-11-22T06:11:33.011Z,11.73
2023-11-22T06:14:20.715Z,11.75
2023-11-22T06:17:06.888Z,11.75
2023-11-22T06:19:53.019Z,11.74
2023-11-22T06:22:42.376Z,11.77
2023-11-22T06:25:28.687Z,11.81
2023-11-22T06:28:14.594Z,11.82
2023-11-22T06:31:01.105Z,11.83
2023-11-22T06:33:47.091Z,11.85
2023-11-22T06:36:33.898Z,11.86
2023-11-22T06:39:19.810Z,11.89
2023-11-22T06:42:06.003Z,11.87
2023-11-22T06:44:54.119Z,11.91
2023-11-22T06:47:41.018Z,11.94
2023-11-22T06:50:28.035Z,11.96
2023-11-22T06:53:14.223Z,11.95
2023-11-22T06:56:00.367Z,12.00
2023-11-22T06:58:46.426Z,12.02
2023-11-22T07:01:32.310Z,12.00
2023-11-22T07:04:18.541Z,12.05
2023-11-22T07:07:05.534Z,12.06
2023-11-22T07:09:52.160Z,12.04
2023-11-22T07:12:38.162Z,12.01
2023-11-22T07:15:24.240Z,11.99
2023-11-22T07:18:11.350Z,11.96
2023-11-22T07:20:58.314Z,11.96
2023-11-22T07:23:46.424Z,11.93
2023-11-22T07:26:32.346Z,11.93
2023-11-22T07:29:18.400Z,11.88
2023-11-22T07:32:04.793Z,11.92
2023-11-22T07:34:50.709Z,11.91
2023-11-22T07:37:45.841Z,11.91
2023-11-22T07:40:32.003Z,11.89
2023-11-22T07:43:19.240Z,11.93
2023-11-22T07:46:14.742Z,11.91
2023-11-22T07:49:00.735Z,11.90
2023-11-22T07:51:46.717Z,11.92
2023-11-22T07:54:32.808Z,11.93
2023-11-22T07:57:21.334Z,11.93
2023-11-22T08:00:08.960Z,11.92
2023-11-22T08:02:58.714Z,11.92
2023-11-22T08:05:49.601Z,11.90
2023-11-22T08:08:39.743Z,11.93
2023-11-22T08:11:26.079Z,11.92
2023-11-22T08:14:14.379Z,11.97
2023-11-22T08:17:00.581Z,11.97
2023-11-22T08:19:49.242Z,11.99
2023-11-22T08:22:36.621Z,12.00
2023-11-22T08:25:22.560Z,12.01
2023-11-22T08:28:11.078Z,12.04
2023-11-22T08:30:57.288Z,12.05
2023-11-22T08:33:43.657Z,12.04
2023-11-22T08:36:29.564Z,12.01
2023-11-22T08:39:15.413Z,12.03
2023-11-22T08:42:01.672Z,12.04
2023-11-22T08:44:47.498Z,12.06
2023-11-22T08:47:33.838Z,12.04
2023-11-22T08:50:21.199Z,12.02
2023-11-22T08:53:08.090Z,11.98
2023-11-22T08:55:55.727Z,12.01
2023-11-22T08:58:41.855Z,11.96
2023-11-22T09:01:28.178Z,12.00
2023-11-22T09:04:14.880Z,12.00
2023-11-22T09:07:01.910Z,11.96
2023-11-22T09:09:48.490Z,12.01
2023-11-22T09:12:34.154Z,12.00
2023-11-22T09:15:27.518Z,11.94
2023-11-22T09:18:13.893Z,11.99
2023-11-22T09:21:00.415Z,12.01
2023-11-22T09:23:46.193Z,11.97
2023-11-22T09:26:32.094Z,11.99
2023-11-22T09:29:18.494Z,11.97
2023-11-22T09:32:04.722Z,11.94
2023-11-22T09:34:52.964Z,11.93
2023-11-22T09:37:40.579Z,11.88
2023-11-22T09:40:33.037Z,11.87
2023-11-22T09:43:21.591Z,11.81
2023-11-22T09:46:13.080Z,11.79
2023-11-22T09:48:59.216Z,11.77
2023-11-22T09:51:48.989Z,11.68
2023-11-22T09:54:35.440Z,11.69
2023-11-22T09:57:26.153Z,11.68
2023-11-22T10:00:15.254Z,11.67
2023-11-22T10:03:01.313Z,11.66
2023-11-22T10:05:47.638Z,11.66
2023-11-22T10:08:34.186Z,11.65
2023-11-22T10:11:23.777Z,11.70
2023-11-22T10:14:10.141Z,11.65
2023-11-22T10:17:02.605Z,11.68
2023-11-22T10:19:48.516Z,11.67
2023-11-22T10:22:49.169Z,11.63
2023-11-22T10:25:35.286Z,11.63
2023-11-22T10:28:21.865Z,11.59
2023-11-22T10:31:09.204Z,11.61
2023-11-22T10:33:58.660Z,11.61
2023-11-22T10:36:44.596Z,11.61
2023-11-22T10:39:30.567Z,11.62
2023-11-22T10:42:16.669Z,11.61
2023-11-22T10:45:08.871Z,11.63
2023-11-22T10:47:56.364Z,11.64
2023-11-22T10:50:48.256Z,11.66
2023-11-22T10:53:36.344Z,11.61
2023-11-22T10:56:24.282Z,11.66
2023-11-22T10:59:16.899Z,11.62
2023-11-22T11:02:08.050Z,11.66
2023-11-22T11:05:14.761Z,11.61
2023-11-22T11:08:13.176Z,11.63
2023-11-22T11:11:00.886Z,11.66
2023-11-22T11:13:49.612Z,11.67
2023-11-22T11:16:39.015Z,11.67
2023-11-22T11:19:26.370Z,11.68
2023-11-22T11:22:13.032Z,11.70
2023-11-22T11:25:06.973Z,11.68
2023-11-22T11:28:03.587Z,11.59
2023-11-22T11:30:50.714Z,11.69
2023-11-22T11:33:54.943Z,11.62
2023-11-22T11:36:41.642Z,11.70
2023-11-22T11:39:32.490Z,11.68
2023-11-22T11:42:25.440Z,11.67
2023-11-22T11:45:12.345Z,11.67
2023-11-22T11:48:29.255Z,11.61
2023-11-22T11:52:27.338Z,11.58
2023-11-22T11:55:13.086Z,11.63
2023-11-22T11:58:05.992Z,11.59
2023-11-22T12:01:12.717Z,11.57
2023-11-22T12:08:54.312Z,11.41
2023-11-22T12:12:19.352Z,11.41
2023-11-22T12:19:50.566Z,11.48
2023-11-22T12:22:37.243Z,11.49
2023-11-22T12:29:57.038Z,11.46
2023-11-22T12:32:43.777Z,11.50
2023-11-22T12:35:31.127Z,11.55
2023-11-22T12:38:51.328Z,11.53
2023-11-22T12:41:37.454Z,11.63
2023-11-22T12:44:23.582Z,11.58
2023-11-22T12:47:43.782Z,11.61
2023-11-22T12:50:37.107Z,11.65
2023-11-22T12:54:06.303Z,11.62
2023-11-22T12:57:00.239Z,11.64
2023-11-22T13:00:30.358Z,11.57
2023-11-22T13:03:16.567Z,11.60
2023-11-22T13:06:02.837Z,11.60
2023-11-22T13:09:22.380Z,11.51
2023-11-22T13:12:08.226Z,11.55
2023-11-22T13:14:54.650Z,11.54
2023-11-22T13:17:40.696Z,11.54
2023-11-22T13:20:28.191Z,11.47
2023-11-22T13:23:15.263Z,11.59
2023-11-22T13:26:01.253Z,11.59
2023-11-22T13:33:11.306Z,11.59
2023-11-22T13:41:07.650Z,11.73
2023-11-22T13:43:53.522Z,11.72
2023-11-22T13:55:55.169Z,11.70
2023-11-22T13:58:41.176Z,11.56
2023-11-22T14:01:27.823Z,11.67
2023-11-22T14:04:13.962Z,11.66
2023-11-22T14:06:59.965Z,11.57
2023-11-22T14:09:48.271Z,11.59
2023-11-22T14:12:34.218Z,11.60
2023-11-22T14:15:23.423Z,11.58
2023-11-22T14:18:09.855Z,11.62
2023-11-22T14:20:57.480Z,11.56
2023-11-22T14:23:43.435Z,11.59
2023-11-22T14:26:35.692Z,11.49
2023-11-22T14:29:21.975Z,11.51
2023-11-22T14:32:08.306Z,11.53
2023-11-22T14:34:56.444Z,11.48
2023-11-22T14:37:43.697Z,11.50
2023-11-22T14:40:31.941Z,11.47
2023-11-22T14:43:18.185Z,11.51
2023-11-22T14:46:06.874Z,11.50
2023-11-22T14:48:54.562Z,11.50
2023-11-22T14:51:40.382Z,11.51
2023-11-22T14:54:29.059Z,11.51
2023-11-22T14:57:18.354Z,11.50
2023-11-22T15:00:10.615Z,11.51
2023-11-22T15:02:58.200Z,11.50
2023-11-22T15:05:44.508Z,11.50
2023-11-22T15:08:30.653Z,11.52
2023-11-22T15:11:16.862Z,11.48
2023-11-22T15:14:03.030Z,11.47
2023-11-22T15:16:49.195Z,11.51
2023-11-22T15:19:36.807Z,11.48
2023-11-22T15:22:28.058Z,11.46
2023-11-22T15:25:16.685Z,11.45
2023-11-22T15:28:03.080Z,11.47
2023-11-22T15:30:59.941Z,11.46
2023-11-22T15:33:46.955Z,11.47
2023-11-22T15:36:33.452Z,11.45
2023-11-22T15:39:23.290Z,11.41
2023-11-22T15:42:42.548Z,11.35
2023-11-22T15:45:28.672Z,11.40
2023-11-22T15:48:16.353Z,11.38
2023-11-22T15:51:02.164Z,11.38
2023-11-22T15:53:49.249Z,11.36
2023-11-22T15:56:35.920Z,11.34
2023-11-22T15:59:21.775Z,11.33
2023-11-22T16:02:10.709Z,11.29
2023-11-22T16:04:56.707Z,11.29
2023-11-22T16:07:43.058Z,11.31
2023-11-22T16:10:29.394Z,11.27
2023-11-22T16:13:15.292Z,11.27
2023-11-22T16:16:02.941Z,11.30
2023-11-22T16:18:48.811Z,11.22
2023-11-22T16:21:35.197Z,11.28
2023-11-22T16:24:21.348Z,11.25
2023-11-22T16:27:07.563Z,11.28
2023-11-22T16:29:53.849Z,11.27
2023-11-22T16:32:40.827Z,11.28
2023-11-22T16:35:27.339Z,11.23
2023-11-22T16:38:13.452Z,11.27
2023-11-22T16:40:59.665Z,11.29
2023-11-22T16:43:45.850Z,11.29
2023-11-22T16:46:33.880Z,11.31
2023-11-22T16:49:20.604Z,11.32
2023-11-22T16:52:06.659Z,11.33
2023-11-22T16:54:53.667Z,11.30
2023-11-22T16:57:40.808Z,11.34
2023-11-22T17:00:27.641Z,11.29
2023-11-22T17:03:18.331Z,11.34
2023-11-22T17:06:08.316Z,11.31
2023-11-22T17:08:55.000Z,11.37
2023-11-22T17:11:42.002Z,11.29
2023-11-22T17:14:29.095Z,11.35
2023-11-22T17:17:15.226Z,11.34
2023-11-22T17:20:01.266Z,11.39
2023-11-22T17:22:47.251Z,11.39
2023-11-22T17:25:34.841Z,11.38
2023-11-22T17:28:26.587Z,11.25
2023-11-22T17:31:12.759Z,11.38
2023-11-22T17:33:59.257Z,11.38
2023-11-22T17:36:45.353Z,11.38
2023-11-22T17:39:31.537Z,11.38
2023-11-22T17:42:19.538Z,11.37
2023-11-22T17:45:06.208Z,11.24
2023-11-22T17:47:53.596Z,11.37
2023-11-22T17:50:40.358Z,11.35
2023-11-22T17:53:27.961Z,11.36
2023-11-22T17:56:14.056Z,11.35
2023-11-22T17:59:00.496Z,11.35
2023-11-22T18:01:46.679Z,11.30
2023-11-22T18:04:33.202Z,11.36
2023-11-22T18:07:22.036Z,11.36
2023-11-22T18:10:09.180Z,11.36
2023-11-22T18:12:54.884Z,11.37
2023-11-22T18:15:44.524Z,11.36
2023-11-22T18:18:30.951Z,11.37
2023-11-22T18:21:16.828Z,11.35
2023-11-22T18:24:03.070Z,11.36
2023-11-22T18:26:49.645Z,11.32
2023-11-22T18:29:35.561Z,11.35
2023-11-22T18:32:26.982Z,11.35
2023-11-22T18:35:16.337Z,11.35
2023-11-22T18:38:02.905Z,11.35
2023-11-22T18:40:48.708Z,11.36
2023-11-22T18:43:35.793Z,11.37
2023-11-22T18:46:21.969Z,11.28
2023-11-22T18:49:09.124Z,11.36
2023-11-22T18:51:54.684Z,11.38
2023-11-22T18:54:42.205Z,11.37
2023-11-22T18:57:28.698Z,11.27
2023-11-22T19:00:15.285Z,11.31
2023-11-22T19:03:01.246Z,11.36
2023-11-22T19:05:48.219Z,11.33
2023-11-22T19:08:34.624Z,11.35
2023-11-22T19:11:20.790Z,11.37
2023-11-22T19:14:07.177Z,11.38
2023-11-22T19:16:53.485Z,11.39
2023-11-22T19:19:42.274Z,11.39
2023-11-22T19:22:28.226Z,11.37
2023-11-22T19:25:14.431Z,11.41
2023-11-22T19:28:01.660Z,11.40
2023-11-22T19:30:47.328Z,11.43
2023-11-22T19:33:33.319Z,11.38
2023-11-22T19:36:27.723Z,11.40
2023-11-22T19:39:13.769Z,11.41
2023-11-22T19:41:59.572Z,11.37
2023-11-22T19:44:45.729Z,11.41
2023-11-22T19:47:32.818Z,11.40
2023-11-22T19:50:21.255Z,11.39
2023-11-22T19:53:07.250Z,11.38
2023-11-22T19:55:53.449Z,11.38
2023-11-22T19:58:41.075Z,11.37
2023-11-22T20:01:27.804Z,11.35
2023-11-22T20:04:16.162Z,11.37
2023-11-22T20:07:02.137Z,11.37
2023-11-22T20:09:49.136Z,11.38
2023-11-22T20:12:35.203Z,11.41
2023-11-22T20:15:22.673Z,11.41
2023-11-22T20:18:10.020Z,11.39
2023-11-22T20:20:56.512Z,11.40
2023-11-22T20:23:42.809Z,11.36
2023-11-22T20:26:28.972Z,11.38
2023-11-22T20:29:16.309Z,11.43
2023-11-22T20:32:02.514Z,11.43
2023-11-22T20:34:49.484Z,11.35
2023-11-22T20:37:37.528Z,11.35
2023-11-22T20:40:26.046Z,11.41
2023-11-22T20:43:12.264Z,11.42
2023-11-22T20:45:59.932Z,11.43
2023-11-22T20:48:45.813Z,11.43
2023-11-22T20:51:32.486Z,11.43
2023-11-22T20:54:18.637Z,11.36
2023-11-22T20:57:08.594Z,11.42
2023-11-22T20:59:55.001Z,11.43
2023-11-22T21:02:41.759Z,11.38
2023-11-22T21:05:28.786Z,11.41
2023-11-22T21:08:21.413Z,11.41
2023-11-22T21:11:18.276Z,11.42
2023-11-22T21:14:05.175Z,11.47
2023-11-22T21:16:51.307Z,11.50
2023-11-22T21:19:38.152Z,11.51
2023-11-22T21:22:26.347Z,11.53
2023-11-22T21:25:12.712Z,11.54
2023-11-22T21:27:59.034Z,11.53
2023-11-22T21:30:45.293Z,11.56
2023-11-22T21:33:32.739Z,11.57
2023-11-22T21:36:18.999Z,11.55
2023-11-22T21:39:13.690Z,11.53
2023-11-22T21:42:00.449Z,11.55
2023-11-22T21:44:48.780Z,11.56
2023-11-22T21:47:38.418Z,11.58
2023-11-22T21:50:24.389Z,11.56
2023-11-22T21:53:11.940Z,11.56
2023-11-22T21:55:57.971Z,11.56
2023-11-22T21:58:45.475Z,11.58
2023-11-22T22:01:31.774Z,11.58
2023-11-22T22:04:18.217Z,11.56
2023-11-22T22:07:05.547Z,11.59
2023-11-22T22:09:51.278Z,11.56
2023-11-22T22:12:37.395Z,11.54
2023-11-22T22:15:23.122Z,11.58
2023-11-22T22:18:09.160Z,11.58
2023-11-22T22:20:56.263Z,11.56
2023-11-22T22:23:43.505Z,11.59
2023-11-22T22:26:29.486Z,11.52
2023-11-22T22:29:15.397Z,11.57
2023-11-22T22:32:01.716Z,11.55
2023-11-22T22:34:48.010Z,11.58
2023-11-22T22:37:34.183Z,11.57
2023-11-22T22:40:20.113Z,11.56
2023-11-22T22:43:06.494Z,11.55
2023-11-22T22:45:52.243Z,11.54
2023-11-22T22:48:39.082Z,11.52
2023-11-22T22:51:25.364Z,11.51
2023-11-22T22:54:12.158Z,11.49
2023-11-22T22:56:58.009Z,11.48
2023-11-22T22:59:44.371Z,11.44
2023-11-22T23:02:31.674Z,11.49
2023-11-22T23:05:24.461Z,11.48
2023-11-22T23:08:12.318Z,11.50
2023-11-22T23:10:58.214Z,11.44
2023-11-22T23:13:45.095Z,11.52
2023-11-22T23:16:31.171Z,11.51
2023-11-22T23:19:17.497Z,11.49
2023-11-22T23:22:07.555Z,11.53
2023-11-22T23:24:53.754Z,11.53
2023-11-22T23:27:39.935Z,11.56
2023-11-22T23:30:25.779Z,11.56
2023-11-22T23:33:12.552Z,11.56
2023-11-22T23:35:59.038Z,11.59
2023-11-22T23:38:46.645Z,11.58
2023-11-22T23:41:35.176Z,11.58
2023-11-22T23:44:21.284Z,11.60
2023-11-22T23:47:10.657Z,11.60
2023-11-22T23:49:56.890Z,11.60
2023-11-22T23:52:43.700Z,11.61
2023-11-22T23:55:29.779Z,11.60
2023-11-22T23:58:16.203Z,11.61
